sensor_id;sensor_type;location;lat;lon;timestamp;temperature;humidity
11704;DHT22;5908;51.354;7.458;2024-01-10T00:00:34;-4.00;93.00
11704;DHT22;5908;51.354;7.458;2024-01-10T00:03:00;-3.80;93.30
11704;DHT22;5908;51.354;7.458;2024-01-10T00:05:27;-3.70;92.90
11704;DHT22;5908;51.354;7.458;2024-01-10T00:07:53;-3.80;92.80
11704;DHT22;5908;51.354;7.458;2024-01-10T00:10:20;-3.70;92.90
11704;DHT22;5908;51.354;7.458;2024-01-10T00:12:47;-3.80;92.70
11704;DHT22;5908;51.354;7.458;2024-01-10T00:15:15;-3.90;92.70
11704;DHT22;5908;51.354;7.458;2024-01-10T00:17:42;-3.80;92.80
11704;DHT22;5908;51.354;7.458;2024-01-10T00:20:09;-3.80;92.70
11704;DHT22;5908;51.354;7.458;2024-01-10T00:22:35;-3.90;92.80
11704;DHT22;5908;51.354;7.458;2024-01-10T00:25:03;-3.80;92.80
11704;DHT22;5908;51.354;7.458;2024-01-10T00:27:29;-3.70;92.60
11704;DHT22;5908;51.354;7.458;2024-01-10T00:29:56;-3.60;92.50
11704;DHT22;5908;51.354;7.458;2024-01-10T00:32:24;-3.80;92.40
11704;DHT22;5908;51.354;7.458;2024-01-10T00:34:51;-3.90;92.60
11704;DHT22;5908;51.354;7.458;2024-01-10T00:37:17;-4.00;92.80
11704;DHT22;5908;51.354;7.458;2024-01-10T00:39:44;-4.20;93.00
11704;DHT22;5908;51.354;7.458;2024-01-10T00:42:11;-4.20;93.50
11704;DHT22;5908;51.354;7.458;2024-01-10T00:44:37;-4.20;93.20
11704;DHT22;5908;51.354;7.458;2024-01-10T00:47:04;-4.00;93.00
11704;DHT22;5908;51.354;7.458;2024-01-10T00:49:32;-3.90;92.80
11704;DHT22;5908;51.354;7.458;2024-01-10T00:51:59;-3.90;93.30
11704;DHT22;5908;51.354;7.458;2024-01-10T00:54:25;-3.90;93.00
11704;DHT22;5908;51.354;7.458;2024-01-10T00:56:52;-3.90;93.10
11704;DHT22;5908;51.354;7.458;2024-01-10T00:59:18;-3.90;93.10
11704;DHT22;5908;51.354;7.458;2024-01-10T01:01:45;-3.90;93.20
11704;DHT22;5908;51.354;7.458;2024-01-10T01:04:11;-3.90;93.30
11704;DHT22;5908;51.354;7.458;2024-01-10T01:06:39;-3.90;93.30
11704;DHT22;5908;51.354;7.458;2024-01-10T01:09:06;-3.90;93.30
11704;DHT22;5908;51.354;7.458;2024-01-10T01:11:32;-3.90;93.40
11704;DHT22;5908;51.354;7.458;2024-01-10T01:13:59;-3.90;93.50
11704;DHT22;5908;51.354;7.458;2024-01-10T01:16:25;-3.90;93.60
11704;DHT22;5908;51.354;7.458;2024-01-10T01:18:52;-3.70;93.60
11704;DHT22;5908;51.354;7.458;2024-01-10T01:21:19;-3.70;93.50
11704;DHT22;5908;51.354;7.458;2024-01-10T01:23:46;-3.80;94.00
11704;DHT22;5908;51.354;7.458;2024-01-10T01:26:13;-3.80;94.00
11704;DHT22;5908;51.354;7.458;2024-01-10T01:28:40;-3.60;93.70
11704;DHT22;5908;51.354;7.458;2024-01-10T01:31:06;-3.70;93.50
11704;DHT22;5908;51.354;7.458;2024-01-10T01:33:33;-3.70;93.40
11704;DHT22;5908;51.354;7.458;2024-01-10T01:35:59;-3.80;93.60
11704;DHT22;5908;51.354;7.458;2024-01-10T01:38:26;-3.90;94.00
11704;DHT22;5908;51.354;7.458;2024-01-10T01:40:54;-4.00;94.20
11704;DHT22;5908;51.354;7.458;2024-01-10T01:43:21;-4.00;94.20
11704;DHT22;5908;51.354;7.458;2024-01-10T01:45:48;-4.10;94.50
11704;DHT22;5908;51.354;7.458;2024-01-10T01:48:16;-4.20;94.60
11704;DHT22;5908;51.354;7.458;2024-01-10T01:50:43;-4.10;94.60
11704;DHT22;5908;51.354;7.458;2024-01-10T01:53:11;-4.20;94.50
11704;DHT22;5908;51.354;7.458;2024-01-10T01:55:38;-4.40;94.80
11704;DHT22;5908;51.354;7.458;2024-01-10T01:58:05;-4.40;95.00
11704;DHT22;5908;51.354;7.458;2024-01-10T02:00:33;-4.40;95.10
11704;DHT22;5908;51.354;7.458;2024-01-10T02:02:59;-4.30;95.30
11704;DHT22;5908;51.354;7.458;2024-01-10T02:05:27;-4.40;95.30
11704;DHT22;5908;51.354;7.458;2024-01-10T02:07:54;-4.40;95.50
11704;DHT22;5908;51.354;7.458;2024-01-10T02:10:21;-4.20;95.40
11704;DHT22;5908;51.354;7.458;2024-01-10T02:12:48;-4.00;95.30
11704;DHT22;5908;51.354;7.458;2024-01-10T02:15:16;-3.80;95.00
11704;DHT22;5908;51.354;7.458;2024-01-10T02:17:43;-3.60;94.50
11704;DHT22;5908;51.354;7.458;2024-01-10T02:20:09;-3.50;94.20
11704;DHT22;5908;51.354;7.458;2024-01-10T02:22:36;-3.30;94.00
11704;DHT22;5908;51.354;7.458;2024-01-10T02:25:04;-3.30;93.80
11704;DHT22;5908;51.354;7.458;2024-01-10T02:27:31;-3.30;93.80
11704;DHT22;5908;51.354;7.458;2024-01-10T02:29:58;-3.30;93.70
11704;DHT22;5908;51.354;7.458;2024-01-10T02:32:25;-3.50;93.80
11704;DHT22;5908;51.354;7.458;2024-01-10T02:34:51;-3.60;94.00
11704;DHT22;5908;51.354;7.458;2024-01-10T02:37:18;-3.80;94.20
11704;DHT22;5908;51.354;7.458;2024-01-10T02:39:45;-3.80;94.80
11704;DHT22;5908;51.354;7.458;2024-01-10T02:42:13;-3.70;94.50
11704;DHT22;5908;51.354;7.458;2024-01-10T02:44:39;-3.80;94.50
11704;DHT22;5908;51.354;7.458;2024-01-10T02:47:06;-3.80;94.70
11704;DHT22;5908;51.354;7.458;2024-01-10T02:49:33;-3.60;94.60
11704;DHT22;5908;51.354;7.458;2024-01-10T02:51:59;-3.50;94.40
11704;DHT22;5908;51.354;7.458;2024-01-10T02:54:26;-3.50;94.10
11704;DHT22;5908;51.354;7.458;2024-01-10T02:56:52;-3.50;93.70
11704;DHT22;5908;51.354;7.458;2024-01-10T02:59:20;-3.40;93.30
11704;DHT22;5908;51.354;7.458;2024-01-10T03:01:47;-3.30;93.20
11704;DHT22;5908;51.354;7.458;2024-01-10T03:04:13;-3.50;93.30
11704;DHT22;5908;51.354;7.458;2024-01-10T03:06:40;-3.70;93.80
11704;DHT22;5908;51.354;7.458;2024-01-10T03:09:07;-3.60;94.00
11704;DHT22;5908;51.354;7.458;2024-01-10T03:11:34;-3.60;94.10
11704;DHT22;5908;51.354;7.458;2024-01-10T03:14:01;-3.60;93.80
11704;DHT22;5908;51.354;7.458;2024-01-10T03:16:30;-3.60;94.00
11704;DHT22;5908;51.354;7.458;2024-01-10T03:18:57;-3.70;94.30
11704;DHT22;5908;51.354;7.458;2024-01-10T03:21:23;-3.60;94.10
11704;DHT22;5908;51.354;7.458;2024-01-10T03:23:51;-3.50;93.70
11704;DHT22;5908;51.354;7.458;2024-01-10T03:26:18;-3.40;93.50
11704;DHT22;5908;51.354;7.458;2024-01-10T03:28:45;-3.50;93.50
11704;DHT22;5908;51.354;7.458;2024-01-10T03:31:11;-3.50;93.50
11704;DHT22;5908;51.354;7.458;2024-01-10T03:33:39;-3.50;93.30
11704;DHT22;5908;51.354;7.458;2024-01-10T03:36:06;-3.60;93.20
11704;DHT22;5908;51.354;7.458;2024-01-10T03:38:33;-3.70;93.00
11704;DHT22;5908;51.354;7.458;2024-01-10T03:41:00;-3.70;93.00
11704;DHT22;5908;51.354;7.458;2024-01-10T03:43:26;-3.80;93.30
11704;DHT22;5908;51.354;7.458;2024-01-10T03:45:53;-3.70;93.30
11704;DHT22;5908;51.354;7.458;2024-01-10T03:48:20;-3.70;93.20
11704;DHT22;5908;51.354;7.458;2024-01-10T03:50:48;-3.80;93.60
11704;DHT22;5908;51.354;7.458;2024-01-10T03:53:14;-3.80;93.80
11704;DHT22;5908;51.354;7.458;2024-01-10T03:55:41;-3.80;93.80
11704;DHT22;5908;51.354;7.458;2024-01-10T03:58:08;-3.80;93.90
11704;DHT22;5908;51.354;7.458;2024-01-10T04:00:34;-3.90;94.00
11704;DHT22;5908;51.354;7.458;2024-01-10T04:03:01;-3.80;94.10
11704;DHT22;5908;51.354;7.458;2024-01-10T04:05:28;-4.00;93.90
11704;DHT22;5908;51.354;7.458;2024-01-10T04:07:57;-3.90;94.00
11704;DHT22;5908;51.354;7.458;2024-01-10T04:10:23;-3.80;93.80
11704;DHT22;5908;51.354;7.458;2024-01-10T04:12:50;-3.70;93.60
11704;DHT22;5908;51.354;7.458;2024-01-10T04:15:17;-3.70;93.40
11704;DHT22;5908;51.354;7.458;2024-01-10T04:17:43;-3.70;93.40
11704;DHT22;5908;51.354;7.458;2024-01-10T04:20:10;-3.60;93.50
11704;DHT22;5908;51.354;7.458;2024-01-10T04:22:37;-3.60;93.40
11704;DHT22;5908;51.354;7.458;2024-01-10T04:25:06;-3.60;93.20
11704;DHT22;5908;51.354;7.458;2024-01-10T04:27:32;-3.60;93.30
11704;DHT22;5908;51.354;7.458;2024-01-10T04:29:59;-3.60;93.10
11704;DHT22;5908;51.354;7.458;2024-01-10T04:32:25;-3.60;93.00
11704;DHT22;5908;51.354;7.458;2024-01-10T04:34:52;-3.50;93.00
11704;DHT22;5908;51.354;7.458;2024-01-10T04:37:19;-3.50;92.80
11704;DHT22;5908;51.354;7.458;2024-01-10T04:39:45;-3.60;92.90
11704;DHT22;5908;51.354;7.458;2024-01-10T04:42:13;-3.60;93.10
11704;DHT22;5908;51.354;7.458;2024-01-10T04:44:40;-3.70;93.20
11704;DHT22;5908;51.354;7.458;2024-01-10T04:47:07;-3.80;93.40
11704;DHT22;5908;51.354;7.458;2024-01-10T04:49:33;-3.70;93.50
11704;DHT22;5908;51.354;7.458;2024-01-10T04:52:00;-3.60;93.30
11704;DHT22;5908;51.354;7.458;2024-01-10T04:54:27;-3.60;93.40
11704;DHT22;5908;51.354;7.458;2024-01-10T04:56:53;-3.50;93.40
11704;DHT22;5908;51.354;7.458;2024-01-10T04:59:21;-3.50;93.40
11704;DHT22;5908;51.354;7.458;2024-01-10T05:01:48;-3.40;93.30
11704;DHT22;5908;51.354;7.458;2024-01-10T05:04:15;-3.40;93.10
11704;DHT22;5908;51.354;7.458;2024-01-10T05:06:41;-3.30;93.00
11704;DHT22;5908;51.354;7.458;2024-01-10T05:09:08;-3.50;92.90
11704;DHT22;5908;51.354;7.458;2024-01-10T05:11:35;-3.50;93.20
11704;DHT22;5908;51.354;7.458;2024-01-10T05:14:02;-3.50;93.30
11704;DHT22;5908;51.354;7.458;2024-01-10T05:16:30;-3.50;93.30
11704;DHT22;5908;51.354;7.458;2024-01-10T05:18:57;-3.40;93.10
11704;DHT22;5908;51.354;7.458;2024-01-10T05:21:27;-3.40;93.00
11704;DHT22;5908;51.354;7.458;2024-01-10T05:23:53;-3.50;92.70
11704;DHT22;5908;51.354;7.458;2024-01-10T05:26:20;-3.60;92.60
11704;DHT22;5908;51.354;7.458;2024-01-10T05:28:46;-3.70;92.90
11704;DHT22;5908;51.354;7.458;2024-01-10T05:31:13;-3.70;93.10
11704;DHT22;5908;51.354;7.458;2024-01-10T05:33:41;-3.70;93.10
11704;DHT22;5908;51.354;7.458;2024-01-10T05:36:08;-3.40;93.10
11704;DHT22;5908;51.354;7.458;2024-01-10T05:38:36;-3.30;92.70
11704;DHT22;5908;51.354;7.458;2024-01-10T05:41:03;-3.20;92.60
11704;DHT22;5908;51.354;7.458;2024-01-10T05:43:30;-3.00;92.40
11704;DHT22;5908;51.354;7.458;2024-01-10T05:45:55;-3.10;92.30
11704;DHT22;5908;51.354;7.458;2024-01-10T05:48:22;-3.00;92.30
11704;DHT22;5908;51.354;7.458;2024-01-10T05:50:50;-3.00;92.40
11704;DHT22;5908;51.354;7.458;2024-01-10T05:53:17;-3.00;92.60
11704;DHT22;5908;51.354;7.458;2024-01-10T05:55:43;-3.30;93.10
11704;DHT22;5908;51.354;7.458;2024-01-10T05:58:10;-3.70;93.90
11704;DHT22;5908;51.354;7.458;2024-01-10T06:00:36;-3.60;94.00
11704;DHT22;5908;51.354;7.458;2024-01-10T06:03:03;-3.50;94.00
11704;DHT22;5908;51.354;7.458;2024-01-10T06:05:30;-3.90;93.80
11704;DHT22;5908;51.354;7.458;2024-01-10T06:07:58;-3.90;94.40
11704;DHT22;5908;51.354;7.458;2024-01-10T06:10:25;-3.90;94.30
11704;DHT22;5908;51.354;7.458;2024-01-10T06:12:52;-4.00;94.40
11704;DHT22;5908;51.354;7.458;2024-01-10T06:15:18;-4.10;94.70
11704;DHT22;5908;51.354;7.458;2024-01-10T06:17:45;-4.30;94.50
11704;DHT22;5908;51.354;7.458;2024-01-10T06:20:11;-4.60;95.40
11704;DHT22;5908;51.354;7.458;2024-01-10T06:22:39;-4.70;95.30
11704;DHT22;5908;51.354;7.458;2024-01-10T06:25:08;-4.90;95.50
11704;DHT22;5908;51.354;7.458;2024-01-10T06:27:35;-4.60;95.90
11704;DHT22;5908;51.354;7.458;2024-01-10T06:30:01;-4.20;95.40
11704;DHT22;5908;51.354;7.458;2024-01-10T06:32:28;-3.90;94.70
11704;DHT22;5908;51.354;7.458;2024-01-10T06:34:55;-4.00;94.10
11704;DHT22;5908;51.354;7.458;2024-01-10T06:37:21;-4.20;94.30
11704;DHT22;5908;51.354;7.458;2024-01-10T06:39:48;-4.30;94.50
11704;DHT22;5908;51.354;7.458;2024-01-10T06:42:16;-4.10;94.90
11704;DHT22;5908;51.354;7.458;2024-01-10T06:44:43;-3.90;94.40
11704;DHT22;5908;51.354;7.458;2024-01-10T06:47:09;-4.10;94.20
11704;DHT22;5908;51.354;7.458;2024-01-10T06:49:36;-4.40;94.50
11704;DHT22;5908;51.354;7.458;2024-01-10T06:52:04;-4.60;95.00
11704;DHT22;5908;51.354;7.458;2024-01-10T06:54:32;-4.40;94.90
11704;DHT22;5908;51.354;7.458;2024-01-10T06:56:59;-4.20;94.60
11704;DHT22;5908;51.354;7.458;2024-01-10T06:59:27;-4.20;93.80
11704;DHT22;5908;51.354;7.458;2024-01-10T07:01:54;-4.20;94.50
11704;DHT22;5908;51.354;7.458;2024-01-10T07:04:21;-4.40;94.50
11704;DHT22;5908;51.354;7.458;2024-01-10T07:06:49;-4.30;94.60
11704;DHT22;5908;51.354;7.458;2024-01-10T07:09:15;-4.40;94.80
11704;DHT22;5908;51.354;7.458;2024-01-10T07:11:45;-4.40;94.90
11704;DHT22;5908;51.354;7.458;2024-01-10T07:14:12;-4.70;95.10
11704;DHT22;5908;51.354;7.458;2024-01-10T07:16:40;-4.70;95.70
11704;DHT22;5908;51.354;7.458;2024-01-10T07:19:08;-4.70;95.50
11704;DHT22;5908;51.354;7.458;2024-01-10T07:21:34;-5.00;96.00
11704;DHT22;5908;51.354;7.458;2024-01-10T07:24:01;-5.00;95.70
11704;DHT22;5908;51.354;7.458;2024-01-10T07:26:28;-4.90;96.20
11704;DHT22;5908;51.354;7.458;2024-01-10T07:28:55;-5.00;96.20
11704;DHT22;5908;51.354;7.458;2024-01-10T07:31:21;-5.20;95.90
11704;DHT22;5908;51.354;7.458;2024-01-10T07:33:50;-5.30;96.40
11704;DHT22;5908;51.354;7.458;2024-01-10T07:36:16;-4.90;96.90
11704;DHT22;5908;51.354;7.458;2024-01-10T07:38:43;-4.70;96.00
11704;DHT22;5908;51.354;7.458;2024-01-10T07:41:10;-4.70;95.70
11704;DHT22;5908;51.354;7.458;2024-01-10T07:43:37;-4.80;95.40
11704;DHT22;5908;51.354;7.458;2024-01-10T07:46:03;-4.60;95.80
11704;DHT22;5908;51.354;7.458;2024-01-10T07:48:30;-4.40;95.60
11704;DHT22;5908;51.354;7.458;2024-01-10T07:50:58;-4.20;95.30
11704;DHT22;5908;51.354;7.458;2024-01-10T07:53:24;-4.10;95.40
11704;DHT22;5908;51.354;7.458;2024-01-10T07:55:52;-4.10;94.90
11704;DHT22;5908;51.354;7.458;2024-01-10T07:58:18;-4.20;94.60
11704;DHT22;5908;51.354;7.458;2024-01-10T08:00:45;-4.30;94.90
11704;DHT22;5908;51.354;7.458;2024-01-10T08:03:11;-4.20;95.20
11704;DHT22;5908;51.354;7.458;2024-01-10T08:05:38;-4.20;94.90
11704;DHT22;5908;51.354;7.458;2024-01-10T08:08:06;-4.30;95.00
11704;DHT22;5908;51.354;7.458;2024-01-10T08:10:33;-4.20;95.20
11704;DHT22;5908;51.354;7.458;2024-01-10T08:12:59;-4.00;95.30
11704;DHT22;5908;51.354;7.458;2024-01-10T08:15:26;-3.60;94.80
11704;DHT22;5908;51.354;7.458;2024-01-10T08:17:55;-3.50;94.40
11704;DHT22;5908;51.354;7.458;2024-01-10T08:20:22;-3.70;94.10
11704;DHT22;5908;51.354;7.458;2024-01-10T08:22:48;-4.10;94.20
11704;DHT22;5908;51.354;7.458;2024-01-10T08:25:16;-4.40;94.60
11704;DHT22;5908;51.354;7.458;2024-01-10T08:27:44;-4.60;95.00
11704;DHT22;5908;51.354;7.458;2024-01-10T08:30:11;-4.60;95.40
11704;DHT22;5908;51.354;7.458;2024-01-10T08:32:38;-4.50;95.40
11704;DHT22;5908;51.354;7.458;2024-01-10T08:35:05;-4.50;95.70
11704;DHT22;5908;51.354;7.458;2024-01-10T08:37:32;-4.20;95.40
11704;DHT22;5908;51.354;7.458;2024-01-10T08:39:59;-4.30;95.00
11704;DHT22;5908;51.354;7.458;2024-01-10T08:42:32;-4.20;95.00
11704;DHT22;5908;51.354;7.458;2024-01-10T08:44:59;-4.00;94.80
11704;DHT22;5908;51.354;7.458;2024-01-10T08:47:26;-3.70;94.90
11704;DHT22;5908;51.354;7.458;2024-01-10T08:49:52;-3.50;94.00
11704;DHT22;5908;51.354;7.458;2024-01-10T08:52:19;-3.90;94.20
11704;DHT22;5908;51.354;7.458;2024-01-10T08:54:45;-4.00;94.60
11704;DHT22;5908;51.354;7.458;2024-01-10T08:57:12;-4.00;94.60
11704;DHT22;5908;51.354;7.458;2024-01-10T08:59:42;-3.90;94.60
11704;DHT22;5908;51.354;7.458;2024-01-10T09:02:08;-4.00;94.40
11704;DHT22;5908;51.354;7.458;2024-01-10T09:04:35;-4.10;94.80
11704;DHT22;5908;51.354;7.458;2024-01-10T09:07:01;-4.20;94.80
11704;DHT22;5908;51.354;7.458;2024-01-10T09:09:27;-4.50;94.70
11704;DHT22;5908;51.354;7.458;2024-01-10T09:11:54;-4.60;95.00
11704;DHT22;5908;51.354;7.458;2024-01-10T09:14:21;-4.50;95.00
11704;DHT22;5908;51.354;7.458;2024-01-10T09:16:49;-4.70;95.30
11704;DHT22;5908;51.354;7.458;2024-01-10T09:19:17;-4.80;95.50
11704;DHT22;5908;51.354;7.458;2024-01-10T09:21:44;-4.40;96.10
11704;DHT22;5908;51.354;7.458;2024-01-10T09:24:11;-3.80;95.50
11704;DHT22;5908;51.354;7.458;2024-01-10T09:26:39;-3.40;94.50
11704;DHT22;5908;51.354;7.458;2024-01-10T09:29:06;-3.20;93.30
11704;DHT22;5908;51.354;7.458;2024-01-10T09:31:33;-3.30;93.50
11704;DHT22;5908;51.354;7.458;2024-01-10T09:34:01;-3.40;93.60
11704;DHT22;5908;51.354;7.458;2024-01-10T09:36:27;-3.00;93.80
11704;DHT22;5908;51.354;7.458;2024-01-10T09:38:54;-2.60;93.40
11704;DHT22;5908;51.354;7.458;2024-01-10T09:41:20;-2.30;92.90
11704;DHT22;5908;51.354;7.458;2024-01-10T09:43:47;-2.20;92.00
11704;DHT22;5908;51.354;7.458;2024-01-10T09:46:14;-3.10;92.00
11704;DHT22;5908;51.354;7.458;2024-01-10T09:48:43;-3.40;93.20
11704;DHT22;5908;51.354;7.458;2024-01-10T09:51:11;-3.50;93.70
11704;DHT22;5908;51.354;7.458;2024-01-10T09:53:37;-3.30;94.20
11704;DHT22;5908;51.354;7.458;2024-01-10T09:56:08;-2.80;93.90
11704;DHT22;5908;51.354;7.458;2024-01-10T09:58:35;-2.60;93.00
11704;DHT22;5908;51.354;7.458;2024-01-10T10:01:05;-2.50;92.50
11704;DHT22;5908;51.354;7.458;2024-01-10T10:03:32;-2.40;92.50
11704;DHT22;5908;51.354;7.458;2024-01-10T10:06:02;-2.10;92.50
11704;DHT22;5908;51.354;7.458;2024-01-10T10:08:30;-1.80;91.90
11704;DHT22;5908;51.354;7.458;2024-01-10T10:10:57;-1.90;91.00
11704;DHT22;5908;51.354;7.458;2024-01-10T10:13:24;-1.90;91.30
11704;DHT22;5908;51.354;7.458;2024-01-10T10:15:58;-1.80;91.60
11704;DHT22;5908;51.354;7.458;2024-01-10T10:18:26;-1.80;91.10
11704;DHT22;5908;51.354;7.458;2024-01-10T10:21:06;-1.70;91.30
11704;DHT22;5908;51.354;7.458;2024-01-10T10:23:34;-1.60;91.40
11704;DHT22;5908;51.354;7.458;2024-01-10T10:26:09;-1.40;91.30
11704;DHT22;5908;51.354;7.458;2024-01-10T10:28:36;-1.10;91.00
11704;DHT22;5908;51.354;7.458;2024-01-10T10:31:02;-0.80;90.70
11704;DHT22;5908;51.354;7.458;2024-01-10T10:33:31;-0.60;90.40
11704;DHT22;5908;51.354;7.458;2024-01-10T10:35:58;-0.40;90.40
11704;DHT22;5908;51.354;7.458;2024-01-10T10:38:25;-0.30;90.40
11704;DHT22;5908;51.354;7.458;2024-01-10T10:40:53;-0.20;90.40
11704;DHT22;5908;51.354;7.458;2024-01-10T10:43:21;-0.10;90.30
11704;DHT22;5908;51.354;7.458;2024-01-10T10:45:48;-0.10;90.10
11704;DHT22;5908;51.354;7.458;2024-01-10T10:48:15;0.00;90.30
11704;DHT22;5908;51.354;7.458;2024-01-10T10:50:43;0.10;90.30
11704;DHT22;5908;51.354;7.458;2024-01-10T10:53:13;0.20;90.20
11704;DHT22;5908;51.354;7.458;2024-01-10T10:55:39;0.20;90.00
11704;DHT22;5908;51.354;7.458;2024-01-10T10:58:09;0.20;88.60
11704;DHT22;5908;51.354;7.458;2024-01-10T11:00:36;0.00;89.10
11704;DHT22;5908;51.354;7.458;2024-01-10T11:03:03;0.00;90.20
11704;DHT22;5908;51.354;7.458;2024-01-10T11:05:30;-0.10;90.00
11704;DHT22;5908;51.354;7.458;2024-01-10T11:07:58;-0.10;89.90
11704;DHT22;5908;51.354;7.458;2024-01-10T11:10:29;0.00;90.10
11704;DHT22;5908;51.354;7.458;2024-01-10T11:13:00;-0.10;90.00
11704;DHT22;5908;51.354;7.458;2024-01-10T11:15:40;0.10;90.10
11704;DHT22;5908;51.354;7.458;2024-01-10T11:18:12;0.20;90.20
11704;DHT22;5908;51.354;7.458;2024-01-10T11:20:52;0.30;90.00
11704;DHT22;5908;51.354;7.458;2024-01-10T11:23:27;0.50;90.00
11704;DHT22;5908;51.354;7.458;2024-01-10T11:25:58;0.60;90.00
11704;DHT22;5908;51.354;7.458;2024-01-10T11:28:25;0.70;89.50
11704;DHT22;5908;51.354;7.458;2024-01-10T11:30:54;0.80;89.20
11704;DHT22;5908;51.354;7.458;2024-01-10T11:33:22;0.80;88.40
11704;DHT22;5908;51.354;7.458;2024-01-10T11:38:48;0.80;90.00
11704;DHT22;5908;51.354;7.458;2024-01-10T11:41:20;0.90;89.80
11704;DHT22;5908;51.354;7.458;2024-01-10T11:46:30;1.00;89.40
11704;DHT22;5908;51.354;7.458;2024-01-10T11:48:56;1.10;89.10
11704;DHT22;5908;51.354;7.458;2024-01-10T11:51:23;1.10;88.80
11704;DHT22;5908;51.354;7.458;2024-01-10T11:53:49;1.10;89.40
11704;DHT22;5908;51.354;7.458;2024-01-10T11:56:18;1.20;90.00
11704;DHT22;5908;51.354;7.458;2024-01-10T11:58:54;1.30;90.00
11704;DHT22;5908;51.354;7.458;2024-01-10T12:01:20;1.40;89.60
11704;DHT22;5908;51.354;7.458;2024-01-10T12:03:48;1.40;89.10
11704;DHT22;5908;51.354;7.458;2024-01-10T12:06:16;1.40;89.00
11704;DHT22;5908;51.354;7.458;2024-01-10T12:08:43;1.50;88.90
11704;DHT22;5908;51.354;7.458;2024-01-10T12:11:10;1.60;88.90
11704;DHT22;5908;51.354;7.458;2024-01-10T12:13:36;1.50;88.10
11704;DHT22;5908;51.354;7.458;2024-01-10T12:16:03;1.30;88.10
11704;DHT22;5908;51.354;7.458;2024-01-10T12:18:31;1.20;87.50
11704;DHT22;5908;51.354;7.458;2024-01-10T12:20:59;1.30;89.10
11704;DHT22;5908;51.354;7.458;2024-01-10T12:23:25;1.50;89.30
11704;DHT22;5908;51.354;7.458;2024-01-10T12:25:56;1.60;88.40
11704;DHT22;5908;51.354;7.458;2024-01-10T12:28:22;1.60;87.50
11704;DHT22;5908;51.354;7.458;2024-01-10T12:30:49;1.50;87.30
11704;DHT22;5908;51.354;7.458;2024-01-10T12:33:16;1.60;88.40
11704;DHT22;5908;51.354;7.458;2024-01-10T12:35:43;1.70;89.20
11704;DHT22;5908;51.354;7.458;2024-01-10T12:38:11;1.80;90.10
11704;DHT22;5908;51.354;7.458;2024-01-10T12:40:37;1.90;90.20
11704;DHT22;5908;51.354;7.458;2024-01-10T12:43:04;1.90;89.20
11704;DHT22;5908;51.354;7.458;2024-01-10T12:45:31;1.90;88.60
11704;DHT22;5908;51.354;7.458;2024-01-10T12:47:58;2.00;87.00
11704;DHT22;5908;51.354;7.458;2024-01-10T12:50:24;2.00;86.80
11704;DHT22;5908;51.354;7.458;2024-01-10T12:52:51;2.00;86.60
11704;DHT22;5908;51.354;7.458;2024-01-10T12:55:19;2.00;88.00
11704;DHT22;5908;51.354;7.458;2024-01-10T12:57:45;2.00;87.90
11704;DHT22;5908;51.354;7.458;2024-01-10T13:00:12;2.10;87.60
11704;DHT22;5908;51.354;7.458;2024-01-10T13:02:39;2.00;87.90
11704;DHT22;5908;51.354;7.458;2024-01-10T13:05:06;2.00;89.50
11704;DHT22;5908;51.354;7.458;2024-01-10T13:07:34;2.00;88.50
11704;DHT22;5908;51.354;7.458;2024-01-10T13:10:01;1.90;87.80
11704;DHT22;5908;51.354;7.458;2024-01-10T13:12:30;1.90;88.10
11704;DHT22;5908;51.354;7.458;2024-01-10T13:14:56;1.90;88.40
11704;DHT22;5908;51.354;7.458;2024-01-10T13:17:23;1.90;88.20
11704;DHT22;5908;51.354;7.458;2024-01-10T13:19:49;2.00;88.40
11704;DHT22;5908;51.354;7.458;2024-01-10T13:22:16;2.10;88.40
11704;DHT22;5908;51.354;7.458;2024-01-10T13:24:44;1.90;88.90
11704;DHT22;5908;51.354;7.458;2024-01-10T13:27:12;1.90;89.10
11704;DHT22;5908;51.354;7.458;2024-01-10T13:29:39;1.80;88.70
11704;DHT22;5908;51.354;7.458;2024-01-10T13:32:06;1.80;87.80
11704;DHT22;5908;51.354;7.458;2024-01-10T13:34:33;1.80;87.90
11704;DHT22;5908;51.354;7.458;2024-01-10T13:37:00;1.80;87.40
11704;DHT22;5908;51.354;7.458;2024-01-10T13:39:27;1.90;89.80
11704;DHT22;5908;51.354;7.458;2024-01-10T13:41:54;1.80;88.30
11704;DHT22;5908;51.354;7.458;2024-01-10T13:44:21;1.80;87.60
11704;DHT22;5908;51.354;7.458;2024-01-10T13:46:48;1.60;87.70
11704;DHT22;5908;51.354;7.458;2024-01-10T13:49:16;1.60;88.20
11704;DHT22;5908;51.354;7.458;2024-01-10T13:51:43;1.70;87.90
11704;DHT22;5908;51.354;7.458;2024-01-10T13:54:10;1.60;87.10
11704;DHT22;5908;51.354;7.458;2024-01-10T13:56:36;1.60;88.20
11704;DHT22;5908;51.354;7.458;2024-01-10T13:59:04;1.50;88.30
11704;DHT22;5908;51.354;7.458;2024-01-10T14:01:31;1.50;88.20
11704;DHT22;5908;51.354;7.458;2024-01-10T14:03:59;1.50;87.40
11704;DHT22;5908;51.354;7.458;2024-01-10T14:06:26;1.60;87.60
11704;DHT22;5908;51.354;7.458;2024-01-10T14:08:52;1.70;88.40
11704;DHT22;5908;51.354;7.458;2024-01-10T14:11:19;1.80;87.80
11704;DHT22;5908;51.354;7.458;2024-01-10T14:13:46;1.90;87.80
11704;DHT22;5908;51.354;7.458;2024-01-10T14:16:12;1.90;87.90
11704;DHT22;5908;51.354;7.458;2024-01-10T14:18:39;1.90;89.30
11704;DHT22;5908;51.354;7.458;2024-01-10T14:21:06;2.00;89.20
11704;DHT22;5908;51.354;7.458;2024-01-10T14:23:33;2.00;88.90
11704;DHT22;5908;51.354;7.458;2024-01-10T14:26:00;2.00;88.90
11704;DHT22;5908;51.354;7.458;2024-01-10T14:28:30;2.00;89.10
11704;DHT22;5908;51.354;7.458;2024-01-10T14:30:58;2.00;89.50
11704;DHT22;5908;51.354;7.458;2024-01-10T14:33:25;2.00;89.30
11704;DHT22;5908;51.354;7.458;2024-01-10T14:35:52;2.00;90.00
11704;DHT22;5908;51.354;7.458;2024-01-10T14:38:20;1.90;89.90
11704;DHT22;5908;51.354;7.458;2024-01-10T14:40:47;1.90;89.10
11704;DHT22;5908;51.354;7.458;2024-01-10T14:43:13;2.00;88.70
11704;DHT22;5908;51.354;7.458;2024-01-10T14:45:41;2.10;88.90
11704;DHT22;5908;51.354;7.458;2024-01-10T14:48:22;2.10;88.90
11704;DHT22;5908;51.354;7.458;2024-01-10T14:50:50;2.10;89.00
11704;DHT22;5908;51.354;7.458;2024-01-10T14:53:17;2.10;89.00
11704;DHT22;5908;51.354;7.458;2024-01-10T14:55:45;2.10;89.50
11704;DHT22;5908;51.354;7.458;2024-01-10T14:58:12;2.10;89.30
11704;DHT22;5908;51.354;7.458;2024-01-10T15:00:39;2.20;89.60
11704;DHT22;5908;51.354;7.458;2024-01-10T15:03:06;2.20;89.50
11704;DHT22;5908;51.354;7.458;2024-01-10T15:05:34;2.20;89.30
11704;DHT22;5908;51.354;7.458;2024-01-10T15:08:00;2.20;89.20
11704;DHT22;5908;51.354;7.458;2024-01-10T15:10:27;2.20;88.90
11704;DHT22;5908;51.354;7.458;2024-01-10T15:12:55;2.20;88.80
11704;DHT22;5908;51.354;7.458;2024-01-10T15:15:21;2.10;89.00
11704;DHT22;5908;51.354;7.458;2024-01-10T15:17:48;2.10;89.60
11704;DHT22;5908;51.354;7.458;2024-01-10T15:20:15;2.10;90.00
11704;DHT22;5908;51.354;7.458;2024-01-10T15:22:42;2.00;89.90
11704;DHT22;5908;51.354;7.458;2024-01-10T15:25:09;2.00;89.80
11704;DHT22;5908;51.354;7.458;2024-01-10T15:27:36;2.00;89.40
11704;DHT22;5908;51.354;7.458;2024-01-10T15:30:04;1.90;89.20
11704;DHT22;5908;51.354;7.458;2024-01-10T15:32:31;1.90;90.20
11704;DHT22;5908;51.354;7.458;2024-01-10T15:34:58;1.80;89.80
11704;DHT22;5908;51.354;7.458;2024-01-10T15:37:29;1.80;89.80
11704;DHT22;5908;51.354;7.458;2024-01-10T15:39:55;1.70;89.50
11704;DHT22;5908;51.354;7.458;2024-01-10T15:42:22;1.60;89.30
11704;DHT22;5908;51.354;7.458;2024-01-10T15:44:49;1.60;89.80
11704;DHT22;5908;51.354;7.458;2024-01-10T15:47:17;1.60;89.70
11704;DHT22;5908;51.354;7.458;2024-01-10T15:49:43;1.60;90.00
11704;DHT22;5908;51.354;7.458;2024-01-10T15:52:11;1.60;90.00
11704;DHT22;5908;51.354;7.458;2024-01-10T15:54:38;1.60;90.00